createdAt,value
2023-04-25T00:02:15.353Z,96505.47
2023-04-25T00:04:42.125Z,96490.09
2023-04-25T00:07:08.983Z,96489.84
2023-04-25T00:09:35.611Z,96493.91
2023-04-25T00:12:02.540Z,96493.25
2023-04-25T00:14:30.458Z,96500.28
2023-04-25T00:16:57.249Z,96499.09
2023-04-25T00:19:23.876Z,96497.88
2023-04-25T00:21:51.127Z,96493.28
2023-04-25T00:24:17.852Z,96487.41
2023-04-25T00:26:44.514Z,96482.88
2023-04-25T00:29:11.064Z,96485.69
2023-04-25T00:31:37.724Z,96485.94
2023-04-25T00:34:04.445Z,96483.94
2023-04-25T00:36:31.691Z,96465.13
2023-04-25T00:38:58.305Z,96486.06
2023-04-25T00:41:27.074Z,96481.50
2023-04-25T00:43:55.181Z,96480.19
2023-04-25T00:46:21.812Z,96472.78
2023-04-25T00:48:48.472Z,96446.81
2023-04-25T00:51:21.425Z,96465.53
2023-04-25T00:53:51.124Z,96465.03
2023-04-25T00:56:18.410Z,96470.06
2023-04-25T00:58:45.270Z,96463.47
2023-04-25T01:01:12.776Z,96455.50
2023-04-25T01:03:43.877Z,96459.38
2023-04-25T01:06:11.802Z,96451.38
2023-04-25T01:08:40.017Z,96448.66
2023-04-25T01:11:07.321Z,96445.16
2023-04-25T01:13:34.969Z,96448.53
2023-04-25T01:16:02.824Z,96448.53
2023-04-25T01:18:29.567Z,96446.34
2023-04-25T01:20:56.707Z,96423.66
2023-04-25T01:23:24.137Z,96435.91
2023-04-25T01:25:50.854Z,96435.34
2023-04-25T01:28:17.904Z,96428.19
2023-04-25T01:30:44.762Z,96431.78
2023-04-25T01:33:12.689Z,96432.56
2023-04-25T01:35:39.325Z,96426.56
2023-04-25T01:38:05.942Z,96425.72
2023-04-25T01:40:34.402Z,96416.72
2023-04-25T01:43:01.021Z,96420.13
2023-04-25T01:45:27.594Z,96415.66
2023-04-25T01:47:54.192Z,96411.56
2023-04-25T01:50:21.327Z,96410.22
2023-04-25T01:52:48.138Z,96414.09
2023-04-25T01:55:14.700Z,96402.25
2023-04-25T01:57:41.374Z,96412.97
2023-04-25T02:00:10.181Z,96400.44
2023-04-25T02:02:37.098Z,96405.09
2023-04-25T02:05:04.064Z,96404.50
2023-04-25T02:07:30.922Z,96403.66
2023-04-25T02:09:57.727Z,96395.66
2023-04-25T02:12:24.368Z,96393.00
2023-04-25T02:14:51.140Z,96392.28
2023-04-25T02:17:17.779Z,96391.38
2023-04-25T02:19:44.689Z,96390.97
2023-04-25T02:22:11.543Z,96384.41
2023-04-25T02:24:38.237Z,96369.03
2023-04-25T02:27:04.889Z,96364.97
2023-04-25T02:29:31.537Z,96378.59
2023-04-25T02:31:58.170Z,96382.41
2023-04-25T02:34:24.835Z,96379.31
2023-04-25T02:36:54.086Z,96375.22
2023-04-25T02:39:20.788Z,96370.59
2023-04-25T02:41:47.333Z,96377.56
2023-04-25T02:44:13.841Z,96375.78
2023-04-25T02:46:40.446Z,96374.53
2023-04-25T02:49:07.738Z,96377.34
2023-04-25T02:51:34.301Z,96379.31
2023-04-25T02:54:00.850Z,96380.28
2023-04-25T02:56:27.979Z,96377.38
2023-04-25T02:58:54.967Z,96374.63
2023-04-25T03:01:22.148Z,96355.19
2023-04-25T03:03:49.186Z,96378.41
2023-04-25T03:06:16.805Z,96380.44
2023-04-25T03:08:43.944Z,96386.38
2023-04-25T03:11:11.450Z,96377.72
2023-04-25T03:13:37.984Z,96387.72
2023-04-25T03:16:04.765Z,96388.28
2023-04-25T03:18:31.491Z,96386.63
2023-04-25T03:20:58.492Z,96386.81
2023-04-25T03:23:25.058Z,96386.72
2023-04-25T03:25:51.614Z,96394.75
2023-04-25T03:28:19.038Z,96385.63
2023-04-25T03:30:45.559Z,96381.84
2023-04-25T03:33:12.380Z,96389.03
2023-04-25T03:35:39.024Z,96393.69
2023-04-25T03:38:05.664Z,96392.13
2023-04-25T03:40:32.284Z,96390.44
2023-04-25T03:42:58.789Z,96379.16
2023-04-25T03:45:25.876Z,96385.78
2023-04-25T03:47:52.530Z,96382.63
2023-04-25T03:50:19.155Z,96396.22
2023-04-25T03:52:45.829Z,96389.41
2023-04-25T03:55:12.476Z,96398.59
2023-04-25T03:57:39.107Z,96393.25
2023-04-25T04:00:07.622Z,96388.19
2023-04-25T04:02:35.936Z,96381.06
2023-04-25T04:05:02.877Z,96390.28
2023-04-25T04:07:29.620Z,96392.41
2023-04-25T04:09:56.242Z,96391.91
2023-04-25T04:12:22.786Z,96386.91
2023-04-25T04:14:49.360Z,96389.16
2023-04-25T04:17:15.903Z,96396.16
2023-04-25T04:19:42.490Z,96385.72
2023-04-25T04:22:09.030Z,96391.94
2023-04-25T04:24:35.650Z,96386.22
2023-04-25T04:27:02.207Z,96389.53
2023-04-25T04:29:28.768Z,96387.06
2023-04-25T04:31:55.518Z,96397.75
2023-04-25T04:34:22.158Z,96391.72
2023-04-25T04:36:49.097Z,96387.31
2023-04-25T04:39:15.666Z,96397.50
2023-04-25T04:41:42.182Z,96391.41
2023-04-25T04:44:10.022Z,96377.81
2023-04-25T04:46:43.122Z,96373.31
2023-04-25T04:49:10.672Z,96397.59
2023-04-25T04:51:37.933Z,96390.94
2023-04-25T04:54:05.555Z,96397.31
2023-04-25T04:56:32.806Z,96396.75
2023-04-25T04:58:59.971Z,96399.84
2023-04-25T05:01:27.755Z,96402.53
2023-04-25T05:03:55.240Z,96399.53
2023-04-25T05:06:22.127Z,96401.09
2023-04-25T05:08:48.966Z,96387.56
2023-04-25T05:11:15.652Z,96397.44
2023-04-25T05:13:42.261Z,96406.72
2023-04-25T05:16:08.871Z,96410.53
2023-04-25T05:18:35.476Z,96407.50
2023-04-25T05:21:02.113Z,96397.63
2023-04-25T05:23:29.246Z,96404.00
2023-04-25T05:25:55.873Z,96397.03
2023-04-25T05:28:22.594Z,96390.22
2023-04-25T05:30:50.037Z,96394.63
2023-04-25T05:33:17.483Z,96393.28
2023-04-25T05:35:43.891Z,96392.91
2023-04-25T05:38:10.509Z,96392.56
2023-04-25T05:40:37.623Z,96393.19
2023-04-25T05:43:04.351Z,96393.75
2023-04-25T05:45:30.864Z,96389.59
2023-04-25T05:47:57.611Z,96392.28
2023-04-25T05:50:24.354Z,96398.88
2023-04-25T05:52:51.524Z,96396.47
2023-04-25T05:55:18.262Z,96398.28
2023-04-25T05:57:46.284Z,96391.41
2023-04-25T06:00:16.099Z,96390.00
2023-04-25T06:02:43.435Z,96393.97
2023-04-25T06:05:10.271Z,96396.03
2023-04-25T06:07:37.056Z,96387.34
2023-04-25T06:10:07.333Z,96394.50
2023-04-25T06:12:34.413Z,96386.19
2023-04-25T06:15:02.255Z,96395.78
2023-04-25T06:17:29.292Z,96394.56
2023-04-25T06:19:55.953Z,96400.03
2023-04-25T06:22:22.505Z,96400.00
2023-04-25T06:24:49.206Z,96389.25
2023-04-25T06:27:17.111Z,96390.25
2023-04-25T06:29:43.810Z,96385.38
2023-04-25T06:32:10.539Z,96390.50
2023-04-25T06:34:37.107Z,96392.31
2023-04-25T06:37:03.712Z,96396.06
2023-04-25T06:39:30.401Z,96387.38
2023-04-25T06:41:56.989Z,96389.34
2023-04-25T06:44:25.071Z,96396.38
2023-04-25T06:46:51.708Z,96384.91
2023-04-25T06:49:18.478Z,96396.19
2023-04-25T06:51:44.986Z,96402.03
2023-04-25T06:54:11.564Z,96388.78
2023-04-25T06:56:38.168Z,96383.34
2023-04-25T06:59:04.798Z,96393.81
2023-04-25T07:01:31.843Z,96385.94
2023-04-25T07:03:58.698Z,96380.56
2023-04-25T07:06:26.978Z,96373.41
2023-04-25T07:08:53.676Z,96368.69
2023-04-25T07:11:20.772Z,96381.72
2023-04-25T07:13:47.361Z,96372.47
2023-04-25T07:16:14.069Z,96355.78
2023-04-25T07:18:40.743Z,96371.19
2023-04-25T07:21:07.299Z,96358.34
2023-04-25T07:23:33.916Z,96349.56
2023-04-25T07:26:00.622Z,96342.50
2023-04-25T07:28:27.169Z,96330.31
2023-04-25T07:30:53.783Z,96338.41
2023-04-25T07:33:21.615Z,96334.66
2023-04-25T07:35:48.479Z,96340.66
2023-04-25T07:38:15.032Z,96339.66
2023-04-25T07:40:41.633Z,96337.66
2023-04-25T07:43:08.318Z,96337.88
2023-04-25T07:45:34.965Z,96348.78
2023-04-25T07:48:01.719Z,96334.94
2023-04-25T07:50:28.457Z,96326.19
2023-04-25T07:52:55.044Z,96316.50
2023-04-25T07:55:21.655Z,96324.94
2023-04-25T07:57:48.219Z,96328.78
2023-04-25T08:00:16.020Z,96314.28
2023-04-25T08:02:42.859Z,96319.88
2023-04-25T08:05:12.814Z,96310.00
2023-04-25T08:07:42.794Z,96307.16
2023-04-25T08:10:09.668Z,96299.63
2023-04-25T08:12:36.269Z,96301.47
2023-04-25T08:15:02.985Z,96311.56
2023-04-25T08:17:29.563Z,96310.97
2023-04-25T08:19:56.536Z,96318.69
2023-04-25T08:22:23.137Z,96315.13
2023-04-25T08:24:49.920Z,96322.13
2023-04-25T08:27:16.472Z,96318.50
2023-04-25T08:29:43.389Z,96322.50
2023-04-25T08:32:10.034Z,96324.41
2023-04-25T08:34:37.938Z,96327.69
2023-04-25T08:37:05.453Z,96326.78
2023-04-25T08:39:32.099Z,96322.91
2023-04-25T08:41:58.955Z,96317.66
2023-04-25T08:44:26.145Z,96316.56
2023-04-25T08:46:53.541Z,96319.56
2023-04-25T08:49:20.758Z,96322.13
2023-04-25T08:51:48.412Z,96324.72
2023-04-25T08:54:30.217Z,96305.88
2023-04-25T08:57:03.323Z,96304.19
2023-04-25T08:59:31.405Z,96302.16
2023-04-25T09:01:58.920Z,96306.50
2023-04-25T09:04:25.798Z,96301.66
2023-04-25T09:06:52.530Z,96308.81
2023-04-25T09:09:19.150Z,96318.34
2023-04-25T09:11:45.768Z,96313.56
2023-04-25T09:14:24.043Z,96311.44
2023-04-25T09:16:56.419Z,96310.28
2023-04-25T09:19:37.471Z,96310.75
2023-04-25T09:22:06.603Z,96329.63
2023-04-25T09:24:40.597Z,96333.16
2023-04-25T09:27:12.569Z,96343.03
2023-04-25T09:29:41.609Z,96331.72
2023-04-25T09:32:22.843Z,96333.28
2023-04-25T09:34:59.213Z,96327.97
2023-04-25T09:37:30.602Z,96322.28
2023-04-25T09:40:06.273Z,96328.00
2023-04-25T09:42:35.499Z,96320.03
2023-04-25T09:45:03.537Z,96314.19
2023-04-25T09:47:30.191Z,96329.16
2023-04-25T09:49:56.864Z,96324.78
2023-04-25T09:52:26.113Z,96325.09
2023-04-25T09:54:53.791Z,96318.13
2023-04-25T09:57:20.258Z,96312.13
2023-04-25T09:59:46.800Z,96328.53
2023-04-25T10:02:16.383Z,96319.50
2023-04-25T10:04:43.519Z,96314.03
2023-04-25T10:07:10.905Z,96314.84
2023-04-25T10:09:40.464Z,96310.16
2023-04-25T10:12:08.773Z,96314.44
2023-04-25T10:14:35.939Z,96315.94
2023-04-25T10:17:02.856Z,96319.47
2023-04-25T10:19:30.610Z,96313.56
2023-04-25T10:21:57.151Z,96299.00
2023-04-25T10:24:24.496Z,96291.63
2023-04-25T10:26:51.568Z,96309.22
2023-04-25T10:29:25.856Z,96298.25
2023-04-25T10:31:52.951Z,96297.25
2023-04-25T10:34:21.040Z,96302.13
2023-04-25T10:36:53.221Z,96306.59
2023-04-25T10:39:24.609Z,96302.22
2023-04-25T10:41:59.006Z,96302.97
2023-04-25T10:44:30.028Z,96288.19
2023-04-25T10:46:59.030Z,96275.28
2023-04-25T10:49:35.896Z,96279.81
2023-04-25T10:52:19.656Z,96263.31
2023-04-25T10:54:54.155Z,96265.47
2023-04-25T10:57:43.593Z,96254.03
2023-04-25T11:00:16.252Z,96261.75
2023-04-25T11:02:46.419Z,96269.84
2023-04-25T11:05:34.574Z,96251.84
2023-04-25T11:08:08.216Z,96259.25
2023-04-25T11:10:38.265Z,96240.53
2023-04-25T11:13:05.909Z,96234.50
2023-04-25T11:15:32.551Z,96227.78
2023-04-25T11:17:59.215Z,96234.03
2023-04-25T11:20:27.394Z,96231.53
2023-04-25T11:22:54.112Z,96236.13
2023-04-25T11:25:21.228Z,96243.94
2023-04-25T11:27:55.737Z,96239.09
2023-04-25T11:30:23.344Z,96238.34
2023-04-25T11:32:50.028Z,96241.97
2023-04-25T11:35:17.589Z,96225.13
2023-04-25T11:37:45.155Z,96219.53
2023-04-25T11:40:12.703Z,96224.56
2023-04-25T11:42:40.922Z,96233.75
2023-04-25T11:45:08.947Z,96232.72
2023-04-25T11:47:35.566Z,96253.06
2023-04-25T11:50:08.428Z,96272.81
2023-04-25T11:52:38.830Z,96295.94
2023-04-25T11:55:09.044Z,96309.44
2023-04-25T11:57:38.738Z,96305.16
2023-04-25T12:00:09.718Z,96307.66
2023-04-25T12:02:37.388Z,96295.63
2023-04-25T12:05:29.299Z,96288.75
2023-04-25T12:07:56.245Z,96289.06
2023-04-25T12:10:23.003Z,96259.53
2023-04-25T12:12:49.628Z,96273.16
2023-04-25T12:15:24.340Z,96270.53
2023-04-25T12:17:52.520Z,96272.88
2023-04-25T12:20:21.456Z,96272.84
2023-04-25T12:22:49.849Z,96274.34
2023-04-25T12:25:35.182Z,96272.81
2023-04-25T12:28:12.265Z,96268.66
2023-04-25T12:30:58.853Z,96283.56
2023-04-25T12:33:27.100Z,96277.69
2023-04-25T12:35:54.804Z,96270.53
2023-04-25T12:38:32.456Z,96274.94
2023-04-25T12:40:59.622Z,96283.44
2023-04-25T12:43:26.563Z,96279.31
2023-04-25T12:45:54.523Z,96286.78
2023-04-25T12:48:21.489Z,96286.78
2023-04-25T12:50:50.105Z,96286.03
2023-04-25T12:53:21.492Z,96289.66
2023-04-25T12:55:49.236Z,96298.63
2023-04-25T12:58:17.420Z,96305.31
2023-04-25T13:00:44.669Z,96300.16
2023-04-25T13:03:12.260Z,96291.41
2023-04-25T13:05:40.047Z,96302.72
2023-04-25T13:08:06.829Z,96317.63
2023-04-25T13:10:34.858Z,96300.06
2023-04-25T13:13:02.322Z,96308.28
2023-04-25T13:15:29.061Z,96310.50
2023-04-25T13:17:56.844Z,96299.44
2023-04-25T13:20:23.710Z,96302.84
2023-04-25T13:22:50.935Z,96303.97
2023-04-25T13:25:17.755Z,96297.03
2023-04-25T13:27:45.857Z,96307.56
2023-04-25T13:30:13.068Z,96302.94
2023-04-25T13:32:40.641Z,96310.38
2023-04-25T13:35:10.880Z,96306.78
2023-04-25T13:37:38.360Z,96312.69
2023-04-25T13:40:10.030Z,96299.34
2023-04-25T13:42:37.725Z,96293.72
2023-04-25T13:45:04.581Z,96284.75
2023-04-25T13:47:31.521Z,96275.75
2023-04-25T13:49:58.267Z,96266.75
2023-04-25T13:52:28.377Z,96256.97
2023-04-25T13:54:54.980Z,96241.03
2023-04-25T13:57:21.755Z,96225.84
2023-04-25T13:59:48.816Z,96234.34
2023-04-25T14:02:15.474Z,96247.19
2023-04-25T14:04:42.803Z,96245.66
2023-04-25T14:07:09.542Z,96254.66
2023-04-25T14:09:36.304Z,96242.03
2023-04-25T14:12:03.234Z,96244.63
2023-04-25T14:14:30.035Z,96229.19
2023-04-25T14:16:58.099Z,96255.44
2023-04-25T14:19:25.698Z,96243.34
2023-04-25T14:21:52.319Z,96240.25
2023-04-25T14:24:18.899Z,96243.09
2023-04-25T14:26:45.630Z,96236.16
2023-04-25T14:29:14.999Z,96240.75
2023-04-25T14:31:42.068Z,96247.69
2023-04-25T14:34:09.449Z,96240.25
2023-04-25T14:36:36.806Z,96238.72
2023-04-25T14:39:04.174Z,96238.19
2023-04-25T14:41:30.671Z,96233.28
2023-04-25T14:43:57.993Z,96236.41
2023-04-25T14:46:24.829Z,96241.03
2023-04-25T14:48:52.008Z,96237.69
2023-04-25T14:51:18.700Z,96238.72
2023-04-25T14:53:45.581Z,96222.78
2023-04-25T14:56:12.343Z,96243.84
2023-04-25T14:58:40.990Z,96238.97
2023-04-25T15:01:10.331Z,96222.78
2023-04-25T15:03:37.253Z,96232.03
2023-04-25T15:06:04.106Z,96228.16
2023-04-25T15:08:30.926Z,96228.94
2023-04-25T15:10:57.595Z,96225.34
2023-04-25T15:13:24.429Z,96217.59
2023-04-25T15:15:52.412Z,96217.88
2023-04-25T15:18:25.267Z,96210.16
2023-04-25T15:20:53.081Z,96213.50
2023-04-25T15:23:20.879Z,96214.81
2023-04-25T15:25:48.215Z,96210.16
2023-04-25T15:28:17.970Z,96214.56
2023-04-25T15:30:44.969Z,96211.22
2023-04-25T15:33:11.679Z,96211.19
2023-04-25T15:35:38.497Z,96209.91
2023-04-25T15:38:05.534Z,96221.72
2023-04-25T15:40:32.488Z,96227.66
2023-04-25T15:42:59.755Z,96217.88
2023-04-25T15:45:26.990Z,96224.56
2023-04-25T15:47:56.028Z,96224.81
2023-04-25T15:50:23.105Z,96240.69
2023-04-25T15:52:51.072Z,96240.19
2023-04-25T15:55:19.000Z,96236.56
2023-04-25T15:57:48.096Z,96247.38
2023-04-25T16:00:15.616Z,96230.66
2023-04-25T16:02:43.968Z,96249.41
2023-04-25T16:05:11.588Z,96233.72
2023-04-25T16:07:39.943Z,96240.13
2023-04-25T16:10:07.551Z,96242.16
2023-04-25T16:12:34.312Z,96236.16
2023-04-25T16:15:01.106Z,96226.66
2023-04-25T16:17:30.778Z,96229.97
2023-04-25T16:19:58.089Z,96238.16
2023-04-25T16:22:24.720Z,96242.22
2023-04-25T16:24:51.406Z,96227.25
2023-04-25T16:27:18.028Z,96248.09
2023-04-25T16:29:44.632Z,96248.59
2023-04-25T16:32:11.243Z,96257.06
2023-04-25T16:34:38.058Z,96262.25
2023-04-25T16:37:04.647Z,96258.66
2023-04-25T16:39:31.338Z,96250.44
2023-04-25T16:41:58.003Z,96255.56
2023-04-25T16:44:24.697Z,96261.00
2023-04-25T16:46:51.328Z,96269.47
2023-04-25T16:49:17.990Z,96276.72
2023-04-25T16:51:46.423Z,96276.72
2023-04-25T16:54:13.248Z,96270.03
2023-04-25T16:56:39.835Z,96271.59
2023-04-25T16:59:06.488Z,96272.09
2023-04-25T17:01:33.379Z,96269.53
2023-04-25T17:04:00.431Z,96272.09
2023-04-25T17:06:27.264Z,96277.47
2023-04-25T17:08:54.083Z,96277.16
2023-04-25T17:11:20.994Z,96282.53
2023-04-25T17:13:47.623Z,96278.94
2023-04-25T17:16:16.754Z,96281.31
2023-04-25T17:18:44.173Z,96286.94
2023-04-25T17:21:10.905Z,96288.47
2023-04-25T17:23:37.711Z,96286.41
2023-04-25T17:26:04.312Z,96295.63
2023-04-25T17:28:31.122Z,96299.75
2023-04-25T17:30:58.981Z,96297.41
2023-04-25T17:33:27.143Z,96297.19
2023-04-25T17:35:54.426Z,96307.19
2023-04-25T17:38:21.206Z,96309.25
2023-04-25T17:40:47.954Z,96311.50
2023-04-25T17:43:14.500Z,96313.53
2023-04-25T17:45:41.350Z,96316.59
2023-04-25T17:48:08.499Z,96317.59
2023-04-25T17:50:35.130Z,96327.13
2023-04-25T17:53:05.596Z,96323.47
2023-04-25T17:55:32.512Z,96321.16
2023-04-25T17:57:59.037Z,96324.72
2023-04-25T18:00:25.715Z,96321.91
2023-04-25T18:02:52.667Z,96326.75
2023-04-25T18:05:20.822Z,96334.47
2023-04-25T18:07:47.485Z,96339.84
2023-04-25T18:10:14.567Z,96341.88
2023-04-25T18:12:41.672Z,96340.13
2023-04-25T18:15:09.351Z,96342.66
2023-04-25T18:17:42.928Z,96345.75
2023-04-25T18:20:17.741Z,96345.75
2023-04-25T18:22:45.211Z,96340.59
2023-04-25T18:25:13.662Z,96339.56
2023-04-25T18:27:41.515Z,96339.25
2023-04-25T18:30:10.638Z,96347.53
2023-04-25T18:32:38.041Z,96353.97
2023-04-25T18:35:04.885Z,96353.59
2023-04-25T18:37:31.595Z,96347.16
2023-04-25T18:39:58.642Z,96355.91
2023-04-25T18:42:25.371Z,96358.47
2023-04-25T18:44:52.508Z,96356.38
2023-04-25T18:47:19.158Z,96364.34
2023-04-25T18:49:45.730Z,96365.13
2023-04-25T18:52:15.064Z,96365.66
2023-04-25T18:54:42.632Z,96379.94
2023-04-25T18:57:09.478Z,96377.75
2023-04-25T18:59:36.363Z,96356.66
2023-04-25T19:02:05.290Z,96369.44
2023-04-25T19:04:32.473Z,96365.56
2023-04-25T19:06:59.709Z,96359.38
2023-04-25T19:09:26.492Z,96365.66
2023-04-25T19:11:53.163Z,96374.13
2023-04-25T19:14:19.746Z,96371.41
2023-04-25T19:16:46.605Z,96374.41
2023-04-25T19:19:13.320Z,96380.78
2023-04-25T19:21:40.289Z,96387.06
2023-04-25T19:24:08.343Z,96386.53
2023-04-25T19:26:34.989Z,96406.13
2023-04-25T19:29:14.491Z,96406.44
2023-04-25T19:31:44.094Z,96400.03
2023-04-25T19:34:11.398Z,96399.88
2023-04-25T19:36:39.407Z,96394.97
2023-04-25T19:39:07.362Z,96403.47
2023-04-25T19:41:37.301Z,96409.09
2023-04-25T19:44:08.906Z,96403.41
2023-04-25T19:46:36.826Z,96407.34
2023-04-25T19:49:07.708Z,96406.16
2023-04-25T19:51:35.587Z,96413.50
2023-04-25T19:54:02.102Z,96416.41
2023-04-25T19:56:29.683Z,96412.25
2023-04-25T19:58:58.409Z,96413.50
2023-04-25T20:01:25.209Z,96411.28
2023-04-25T20:03:52.385Z,96405.78
2023-04-25T20:06:19.153Z,96395.94
2023-04-25T20:08:47.122Z,96390.94
2023-04-25T20:11:13.870Z,96397.50
2023-04-25T20:13:40.517Z,96410.28
2023-04-25T20:16:07.800Z,96420.59
2023-04-25T20:18:35.052Z,96427.75
2023-04-25T20:21:02.494Z,96418.06
2023-04-25T20:23:29.268Z,96416.75
2023-04-25T20:25:55.906Z,96413.19
2023-04-25T20:28:23.286Z,96403.69
2023-04-25T20:30:50.438Z,96419.03
2023-04-25T20:33:17.108Z,96426.22
2023-04-25T20:35:43.931Z,96419.03
2023-04-25T20:38:10.625Z,96422.13
2023-04-25T20:40:37.249Z,96410.28
2023-04-25T20:43:05.315Z,96410.50
2023-04-25T20:45:33.834Z,96410.16
2023-04-25T20:48:00.504Z,96415.38
2023-04-25T20:50:28.227Z,96425.38
2023-04-25T20:52:54.819Z,96413.38
2023-04-25T20:55:21.532Z,96417.25
2023-04-25T20:57:48.113Z,96418.06
2023-04-25T21:00:18.558Z,96418.25
2023-04-25T21:02:46.652Z,96417.69
2023-04-25T21:05:13.512Z,96409.31
2023-04-25T21:07:40.122Z,96399.59
2023-04-25T21:10:07.153Z,96408.03
2023-04-25T21:12:33.999Z,96404.94
2023-04-25T21:15:00.740Z,96404.47
2023-04-25T21:17:27.762Z,96395.69
2023-04-25T21:19:54.493Z,96403.19
2023-04-25T21:22:21.572Z,96402.91
2023-04-25T21:24:50.707Z,96402.41
2023-04-25T21:27:20.859Z,96411.13
2023-04-25T21:29:47.466Z,96405.72
2023-04-25T21:32:17.625Z,96409.31
2023-04-25T21:34:44.354Z,96396.66
2023-04-25T21:37:11.214Z,96394.81
2023-04-25T21:39:37.897Z,96413.84
2023-04-25T21:42:08.970Z,96415.59
2023-04-25T21:44:36.217Z,96405.84
2023-04-25T21:47:04.721Z,96409.72
2023-04-25T21:49:32.880Z,96416.38
2023-04-25T21:52:00.069Z,96408.63
2023-04-25T21:54:27.043Z,96413.47
2023-04-25T21:56:53.692Z,96415.78
2023-04-25T21:59:23.396Z,96408.03
2023-04-25T22:01:50.147Z,96386.91
2023-04-25T22:04:17.143Z,96405.31
2023-04-25T22:06:43.932Z,96394.06
2023-04-25T22:09:10.667Z,96395.16
2023-04-25T22:11:37.201Z,96401.28
2023-04-25T22:14:04.184Z,96407.88
2023-04-25T22:16:30.829Z,96403.59
2023-04-25T22:18:57.406Z,96392.53
2023-04-25T22:21:24.511Z,96397.78
2023-04-25T22:23:52.865Z,96400.88
2023-04-25T22:26:20.504Z,96397.44
2023-04-25T22:28:47.071Z,96388.72
2023-04-25T22:31:14.387Z,96390.75
2023-04-25T22:33:40.851Z,96388.34
2023-04-25T22:36:07.752Z,96380.38
2023-04-25T22:38:34.365Z,96370.59
2023-04-25T22:41:00.993Z,96370.53
2023-04-25T22:43:29.239Z,96366.66
2023-04-25T22:45:56.943Z,96364.34
2023-04-25T22:48:23.519Z,96363.78
2023-04-25T22:50:51.164Z,96357.53
2023-04-25T22:53:17.734Z,96360.06
2023-04-25T22:55:44.371Z,96354.88
2023-04-25T22:58:11.056Z,96362.47
2023-04-25T23:00:37.811Z,96355.47
2023-04-25T23:03:04.862Z,96355.31
2023-04-25T23:05:32.976Z,96344.09
2023-04-25T23:07:59.842Z,96335.25
2023-04-25T23:10:28.218Z,96343.31
2023-04-25T23:12:57.456Z,96323.75
2023-04-25T23:15:27.557Z,96322.97
2023-04-25T23:17:54.168Z,96313.34
2023-04-25T23:20:21.146Z,96321.50
2023-04-25T23:22:48.006Z,96311.91
2023-04-25T23:25:14.971Z,96315.38
2023-04-25T23:27:41.788Z,96312.69
2023-04-25T23:30:09.373Z,96308.00
2023-04-25T23:32:36.692Z,96319.94
2023-04-25T23:35:04.987Z,96321.00
2023-04-25T23:37:36.012Z,96311.31
2023-04-25T23:40:08.673Z,96303.84
2023-04-25T23:42:36.050Z,96299.50
2023-04-25T23:45:05.046Z,96296.03
2023-04-25T23:47:31.785Z,96300.09
2023-04-25T23:49:58.474Z,96295.63
2023-04-25T23:52:26.241Z,96296.41
2023-04-25T23:54:52.793Z,96276.25
2023-04-25T23:57:19.396Z,96295.72
2023-04-25T23:59:46.039Z,96288.63
